地図

経路データ

SID SEASON NUMBER BASIN SUBBASIN NAME ISO_TIME NATURE LAT LON WMO_WIND WMO_PRES WMO_AGENCY TRACK_TYPE DIST2LAND LANDFALL IFLAG USA_AGENCY USA_ATCF_ID USA_LAT USA_LON USA_RECORD USA_STATUS USA_WIND USA_PRES USA_SSHS USA_R34_NE USA_R34_SE USA_R34_SW USA_R34_NW USA_R50_NE USA_R50_SE USA_R50_SW USA_R50_NW USA_R64_NE USA_R64_SE USA_R64_SW USA_R64_NW USA_POCI USA_ROCI USA_RMW USA_EYE TOKYO_LAT TOKYO_LON TOKYO_GRADE TOKYO_WIND TOKYO_PRES TOKYO_R50_DIR TOKYO_R50_LONG TOKYO_R50_SHORT TOKYO_R30_DIR TOKYO_R30_LONG TOKYO_R30_SHORT TOKYO_LAND CMA_LAT CMA_LON CMA_CAT CMA_WIND CMA_PRES HKO_LAT HKO_LON HKO_CAT HKO_WIND HKO_PRES NEWDELHI_LAT NEWDELHI_LON NEWDELHI_GRADE NEWDELHI_WIND NEWDELHI_PRES NEWDELHI_CI NEWDELHI_DP NEWDELHI_POCI REUNION_LAT REUNION_LON REUNION_TYPE REUNION_WIND REUNION_PRES REUNION_TNUM REUNION_CI REUNION_RMW REUNION_R34_NE REUNION_R34_SE REUNION_R34_SW REUNION_R34_NW REUNION_R50_NE REUNION_R50_SE REUNION_R50_SW REUNION_R50_NW REUNION_R64_NE REUNION_R64_SE REUNION_R64_SW REUNION_R64_NW BOM_LAT BOM_LON BOM_TYPE BOM_WIND BOM_PRES BOM_TNUM BOM_CI BOM_RMW BOM_R34_NE BOM_R34_SE BOM_R34_SW BOM_R34_NW BOM_R50_NE BOM_R50_SE BOM_R50_SW BOM_R50_NW BOM_R64_NE BOM_R64_SE BOM_R64_SW BOM_R64_NW BOM_ROCI BOM_POCI BOM_EYE BOM_POS_METHOD BOM_PRES_METHOD NADI_LAT NADI_LON NADI_CAT NADI_WIND NADI_PRES WELLINGTON_LAT WELLINGTON_LON WELLINGTON_WIND WELLINGTON_PRES DS824_LAT DS824_LON DS824_STAGE DS824_WIND DS824_PRES TD9636_LAT TD9636_LON TD9636_STAGE TD9636_WIND TD9636_PRES TD9635_LAT TD9635_LON TD9635_WIND TD9635_PRES TD9635_ROCI NEUMANN_LAT NEUMANN_LON NEUMANN_CLASS NEUMANN_WIND NEUMANN_PRES MLC_LAT MLC_LON MLC_CLASS MLC_WIND MLC_PRES USA_GUST BOM_GUST BOM_GUST_PER REUNION_GUST REUNION_GUST_PER USA_SEAHGT USA_SEARAD_NE USA_SEARAD_SE USA_SEARAD_SW USA_SEARAD_NW STORM_SPEED STORM_DIR
1959026S11061 1959 12 SI MM NOT_NAMED 1959-01-26 06:00:00 NR -10.9000 61.0000 reunion main 1088 1074 _____O________ -1 -10.9000 61.0000 99 9.90000 3 237
1959026S11061 1959 12 SI MM NOT_NAMED 1959-01-26 09:00:00 NR -10.9855 60.8693 main 1074 1057 _____P________ -1 -10.9855 60.8693 99 3 236
1959026S11061 1959 12 SI MM NOT_NAMED 1959-01-26 12:00:00 NR -11.0736 60.7391 main 1057 1043 _____P________ -1 -11.0736 60.7391 99 3 234
1959026S11061 1959 12 SI MM NOT_NAMED 1959-01-26 15:00:00 NR -11.1668 60.6100 main 1043 1029 _____P________ -1 -11.1668 60.6100 99 3 232
1959026S11061 1959 12 SI MM NOT_NAMED 1959-01-26 18:00:00 NR -11.2677 60.4825 main 1029 1015 _____P________ -1 -11.2677 60.4825 99 3 229
1959026S11061 1959 12 SI MM NOT_NAMED 1959-01-26 21:00:00 NR -11.3788 60.3572 main 1015 998 _____P________ -1 -11.3788 60.3572 99 3 226
1959026S11061 1959 12 SI MM NOT_NAMED 1959-01-27 00:00:00 NR -11.5029 60.2346 main 998 985 _____P________ -1 -11.5029 60.2346 99 4 222
1959026S11061 1959 12 SI MM NOT_NAMED 1959-01-27 03:00:00 NR -11.6424 60.1154 main 985 960 _____P________ -1 -11.6424 60.1154 99 4 218
1959026S11061 1959 12 SI MM NOT_NAMED 1959-01-27 06:00:00 NR -11.8000 60.0000 reunion main 960 936 _____O________ -1 -11.8000 60.0000 99 9.90000 4 213
1959026S11061 1959 12 SI MM NOT_NAMED 1959-01-27 09:00:00 NR -11.9774 59.8891 main 936 912 _____P________ -1 -11.9774 59.8891 99 4 210
1959026S11061 1959 12 SI MM NOT_NAMED 1959-01-27 12:00:00 NR -12.1731 59.7833 main 912 887 _____P________ -1 -12.1731 59.7833 99 5 206
1959026S11061 1959 12 SI MM NOT_NAMED 1959-01-27 15:00:00 NR -12.3848 59.6834 main 887 863 _____P________ -1 -12.3848 59.6834 99 5 203
1959026S11061 1959 12 SI MM NOT_NAMED 1959-01-27 18:00:00 NR -12.6100 59.5902 main 863 839 _____P________ -1 -12.6100 59.5902 99 5 200
1959026S11061 1959 12 SI MM NOT_NAMED 1959-01-27 21:00:00 NR -12.8465 59.5045 main 839 804 _____P________ -1 -12.8465 59.5045 99 5 198
1959026S11061 1959 12 SI MM NOT_NAMED 1959-01-28 00:00:00 NR -13.0919 59.4271 main 804 782 _____P________ -1 -13.0919 59.4271 99 5 196
1959026S11061 1959 12 SI MM NOT_NAMED 1959-01-28 03:00:00 NR -13.3439 59.3586 main 782 747 _____P________ -1 -13.3439 59.3586 99 5 194
1959026S11061 1959 12 SI MM NOT_NAMED 1959-01-28 06:00:00 NR -13.6000 59.3000 reunion main 747 722 _____O________ -1 -13.6000 59.3000 99 9.90000 5 194
1959026S11061 1959 12 SI MM NOT_NAMED 1959-01-28 09:00:00 NR -13.8104 59.2348 main 722 700 _____P________ -1 -13.8104 59.2348 99 4 196
1959026S11061 1959 12 SI MM NOT_NAMED 1959-01-28 12:00:00 NR -14.0224 59.1781 main 700 676 _____P________ -1 -14.0224 59.1781 99 4 192
1959026S11061 1959 12 SI MM NOT_NAMED 1959-01-28 15:00:00 NR -14.2426 59.1314 main 676 644 _____P________ -1 -14.2426 59.1314 99 5 189
1959026S11061 1959 12 SI MM NOT_NAMED 1959-01-28 18:00:00 NR -14.4778 59.0962 main 644 622 _____P________ -1 -14.4778 59.0962 99 5 187
1959026S11061 1959 12 SI MM NOT_NAMED 1959-01-28 21:00:00 NR -14.7344 59.0739 main 622 589 _____P________ -1 -14.7344 59.0739 99 5 183
1959026S11061 1959 12 SI MM NOT_NAMED 1959-01-29 00:00:00 NR -15.0192 59.0661 main 589 557 _____P________ -1 -15.0192 59.0661 99 6 0
1959026S11061 1959 12 SI MM NOT_NAMED 1959-01-29 03:00:00 NR -15.3389 59.0743 main 557 514 _____P________ -1 -15.3389 59.0743 99 7 177
1959026S11061 1959 12 SI MM NOT_NAMED 1959-01-29 06:00:00 NR -15.7000 59.1000 reunion main 514 471 _____O________ -1 -15.7000 59.1000 99 9.90000 8 176
1959026S11061 1959 12 SI MM NOT_NAMED 1959-01-29 09:00:00 NR -16.1234 59.1305 main 471 422 _____P________ -1 -16.1234 59.1305 99 9 175
1959026S11061 1959 12 SI MM NOT_NAMED 1959-01-29 12:00:00 NR -16.5895 59.1783 main 422 370 _____P________ -1 -16.5895 59.1783 99 10 174
1959026S11061 1959 12 SI MM NOT_NAMED 1959-01-29 15:00:00 NR -17.0896 59.2428 main 370 326 _____P________ -1 -17.0896 59.2428 99 10 172
1959026S11061 1959 12 SI MM NOT_NAMED 1959-01-29 18:00:00 NR -17.6152 59.3236 main 326 286 _____P________ -1 -17.6152 59.3236 99 11 171
1959026S11061 1959 12 SI MM NOT_NAMED 1959-01-29 21:00:00 NR -18.1577 59.4202 main 277 245 _____P________ -1 -18.1577 59.4202 99 11 170
1959026S11061 1959 12 SI MM NOT_NAMED 1959-01-30 00:00:00 NR -18.7083 59.5321 main 245 222 _____P________ -1 -18.7083 59.5321 99 11 168
1959026S11061 1959 12 SI MM NOT_NAMED 1959-01-30 03:00:00 NR -19.2586 59.6589 main 227 213 _____P________ -1 -19.2586 59.6589 99 11 167
1959026S11061 1959 12 SI MM NOT_NAMED 1959-01-30 06:00:00 NR -19.8000 59.8000 reunion main 216 211 _____O________ -1 -19.8000 59.8000 99 9.90000 11 165
1959026S11061 1959 12 SI MM NOT_NAMED 1959-01-30 09:00:00 NR -20.3485 59.9656 main 229 229 _____P________ -1 -20.3485 59.9656 99 12 163
1959026S11061 1959 12 SI MM NOT_NAMED 1959-01-30 12:00:00 NR -20.8992 60.1504 main 258 258 _____P________ -1 -20.8992 60.1504 99 12 162
1959026S11061 1959 12 SI MM NOT_NAMED 1959-01-30 15:00:00 NR -21.4423 60.3480 main 287 287 _____P________ -1 -21.4423 60.3480 99 11 161
1959026S11061 1959 12 SI MM NOT_NAMED 1959-01-30 18:00:00 NR -21.9679 60.5522 main 344 344 _____P________ -1 -21.9679 60.5522 99 11 160
1959026S11061 1959 12 SI MM NOT_NAMED 1959-01-30 21:00:00 NR -22.4663 60.7562 main 390 390 _____P________ -1 -22.4663 60.7562 99 10 159
1959026S11061 1959 12 SI MM NOT_NAMED 1959-01-31 00:00:00 NR -22.9276 60.9535 main 433 433 _____P________ -1 -22.9276 60.9535 99 9 158
1959026S11061 1959 12 SI MM NOT_NAMED 1959-01-31 03:00:00 NR -23.3421 61.1371 main 470 470 _____P________ -1 -23.3421 61.1371 99 8 158
1959026S11061 1959 12 SI MM NOT_NAMED 1959-01-31 06:00:00 NR -23.7000 61.3000 reunion main 515 515 _____O________ -1 -23.7000 61.3000 99 9.90000 7 157
1959026S11061 1959 12 SI MM NOT_NAMED 1959-01-31 09:00:00 NR -23.9946 61.4369 main 545 545 _____P________ -1 -23.9946 61.4369 99 6 157
1959026S11061 1959 12 SI MM NOT_NAMED 1959-01-31 12:00:00 NR -24.2313 61.5492 main 568 568 _____P________ -1 -24.2313 61.5492 99 5 156
1959026S11061 1959 12 SI MM NOT_NAMED 1959-01-31 15:00:00 NR -24.4184 61.6404 main 592 592 _____P________ -1 -24.4184 61.6404 99 4 156
1959026S11061 1959 12 SI MM NOT_NAMED 1959-01-31 18:00:00 NR -24.5642 61.7138 main 615 615 _____P________ -1 -24.5642 61.7138 99 3 155
1959026S11061 1959 12 SI MM NOT_NAMED 1959-01-31 21:00:00 NR -24.6770 61.7729 main 630 630 _____P________ -1 -24.6770 61.7729 99 2 154
1959026S11061 1959 12 SI MM NOT_NAMED 1959-02-01 00:00:00 NR -24.7651 61.8212 main 638 638 _____P________ -1 -24.7651 61.8212 99 2 154
1959026S11061 1959 12 SI MM NOT_NAMED 1959-02-01 03:00:00 NR -24.8367 61.8624 main 645 645 _____P________ -1 -24.8367 61.8624 99 2 152
1959026S11061 1959 12 SI MM NOT_NAMED 1959-02-01 06:00:00 NR -24.9000 61.9000 reunion main 653 _____O________ -1 -24.9000 61.9000 99 9.90000 1 143

IBTrACS Databaseについて

本データベースは、米国NOAAが公開する1842年以降の世界の熱帯低気圧のベストトラックデータアーカイブInternational Best Track Archive for Climate Stewardship (IBTrACS)を、ウェブで閲覧しやすい形式に変換したものです。

最終更新日:2021-12-03